sensor_id;sensor_type;location;lat;lon;timestamp;P1;durP1;ratioP1;P2;durP2;ratioP2
2934;SDS011;2462;51.456;7.248;2023-03-14T00:02:16;2.07;;;1.73;;
2934;SDS011;2462;51.456;7.248;2023-03-14T00:04:42;3.23;;;1.70;;
2934;SDS011;2462;51.456;7.248;2023-03-14T00:07:10;3.30;;;1.97;;
2934;SDS011;2462;51.456;7.248;2023-03-14T00:09:36;2.80;;;1.90;;
2934;SDS011;2462;51.456;7.248;2023-03-14T00:12:02;2.90;;;1.70;;
2934;SDS011;2462;51.456;7.248;2023-03-14T00:14:28;2.90;;;1.87;;
2934;SDS011;2462;51.456;7.248;2023-03-14T00:16:54;2.73;;;1.70;;
2934;SDS011;2462;51.456;7.248;2023-03-14T00:19:20;5.07;;;2.20;;
2934;SDS011;2462;51.456;7.248;2023-03-14T00:21:46;2.30;;;1.70;;
2934;SDS011;2462;51.456;7.248;2023-03-14T00:24:12;4.07;;;2.20;;
2934;SDS011;2462;51.456;7.248;2023-03-14T00:26:38;3.97;;;1.50;;
2934;SDS011;2462;51.456;7.248;2023-03-14T00:29:04;2.80;;;1.50;;
2934;SDS011;2462;51.456;7.248;2023-03-14T00:31:30;3.10;;;1.60;;
2934;SDS011;2462;51.456;7.248;2023-03-14T00:33:57;3.33;;;1.80;;
2934;SDS011;2462;51.456;7.248;2023-03-14T00:36:23;2.90;;;1.40;;
2934;SDS011;2462;51.456;7.248;2023-03-14T00:38:49;3.63;;;1.70;;
2934;SDS011;2462;51.456;7.248;2023-03-14T00:41:16;4.20;;;2.30;;
2934;SDS011;2462;51.456;7.248;2023-03-14T00:43:43;4.33;;;1.73;;
2934;SDS011;2462;51.456;7.248;2023-03-14T00:46:09;2.33;;;1.50;;
2934;SDS011;2462;51.456;7.248;2023-03-14T00:48:35;2.43;;;1.77;;
2934;SDS011;2462;51.456;7.248;2023-03-14T00:51:02;2.90;;;2.00;;
2934;SDS011;2462;51.456;7.248;2023-03-14T00:53:28;3.03;;;1.83;;
2934;SDS011;2462;51.456;7.248;2023-03-14T00:55:54;4.33;;;1.83;;
2934;SDS011;2462;51.456;7.248;2023-03-14T00:58:20;5.53;;;2.00;;
2934;SDS011;2462;51.456;7.248;2023-03-14T01:00:46;3.90;;;2.10;;
2934;SDS011;2462;51.456;7.248;2023-03-14T01:03:12;1.90;;;1.60;;
2934;SDS011;2462;51.456;7.248;2023-03-14T01:05:38;6.77;;;1.77;;
2934;SDS011;2462;51.456;7.248;2023-03-14T01:08:05;3.30;;;1.57;;
2934;SDS011;2462;51.456;7.248;2023-03-14T01:10:32;5.03;;;2.07;;
2934;SDS011;2462;51.456;7.248;2023-03-14T01:12:58;1.70;;;1.27;;
2934;SDS011;2462;51.456;7.248;2023-03-14T01:15:24;3.60;;;1.67;;
2934;SDS011;2462;51.456;7.248;2023-03-14T01:17:50;3.63;;;2.10;;
2934;SDS011;2462;51.456;7.248;2023-03-14T01:20:16;3.30;;;1.63;;
2934;SDS011;2462;51.456;7.248;2023-03-14T01:22:43;2.47;;;1.53;;
2934;SDS011;2462;51.456;7.248;2023-03-14T01:25:14;4.00;;;1.83;;
2934;SDS011;2462;51.456;7.248;2023-03-14T01:27:41;3.90;;;1.70;;
2934;SDS011;2462;51.456;7.248;2023-03-14T01:30:07;3.40;;;1.90;;
2934;SDS011;2462;51.456;7.248;2023-03-14T01:32:34;2.80;;;1.40;;
2934;SDS011;2462;51.456;7.248;2023-03-14T01:35:00;2.47;;;1.40;;
2934;SDS011;2462;51.456;7.248;2023-03-14T01:37:26;1.90;;;1.40;;
2934;SDS011;2462;51.456;7.248;2023-03-14T01:39:52;5.77;;;1.67;;
2934;SDS011;2462;51.456;7.248;2023-03-14T01:42:18;5.20;;;1.77;;
2934;SDS011;2462;51.456;7.248;2023-03-14T01:44:46;4.53;;;1.93;;
2934;SDS011;2462;51.456;7.248;2023-03-14T01:47:12;4.80;;;1.77;;
2934;SDS011;2462;51.456;7.248;2023-03-14T01:49:38;5.53;;;2.70;;
2934;SDS011;2462;51.456;7.248;2023-03-14T01:52:06;5.07;;;2.30;;
2934;SDS011;2462;51.456;7.248;2023-03-14T01:54:34;3.27;;;1.73;;
2934;SDS011;2462;51.456;7.248;2023-03-14T01:57:03;2.93;;;1.70;;
2934;SDS011;2462;51.456;7.248;2023-03-14T01:59:30;4.70;;;2.13;;
2934;SDS011;2462;51.456;7.248;2023-03-14T02:01:57;3.00;;;1.90;;
2934;SDS011;2462;51.456;7.248;2023-03-14T02:04:23;3.93;;;1.70;;
2934;SDS011;2462;51.456;7.248;2023-03-14T02:07:05;2.10;;;1.50;;
2934;SDS011;2462;51.456;7.248;2023-03-14T02:09:34;3.90;;;2.37;;
2934;SDS011;2462;51.456;7.248;2023-03-14T02:12:00;1.90;;;1.60;;
2934;SDS011;2462;51.456;7.248;2023-03-14T02:14:28;2.40;;;1.80;;
2934;SDS011;2462;51.456;7.248;2023-03-14T02:16:55;2.33;;;1.50;;
2934;SDS011;2462;51.456;7.248;2023-03-14T02:19:25;3.40;;;1.73;;
2934;SDS011;2462;51.456;7.248;2023-03-14T02:22:11;1.93;;;1.40;;
2934;SDS011;2462;51.456;7.248;2023-03-14T02:27:16;2.67;;;1.30;;
2934;SDS011;2462;51.456;7.248;2023-03-14T02:29:45;1.50;;;1.30;;
2934;SDS011;2462;51.456;7.248;2023-03-14T02:32:13;3.53;;;1.90;;
2934;SDS011;2462;51.456;7.248;2023-03-14T02:34:40;5.20;;;1.90;;
2934;SDS011;2462;51.456;7.248;2023-03-14T02:37:08;2.23;;;1.40;;
2934;SDS011;2462;51.456;7.248;2023-03-14T02:39:35;2.07;;;1.33;;
2934;SDS011;2462;51.456;7.248;2023-03-14T02:42:02;2.57;;;1.40;;
2934;SDS011;2462;51.456;7.248;2023-03-14T02:44:28;3.93;;;1.63;;
2934;SDS011;2462;51.456;7.248;2023-03-14T02:46:54;2.80;;;1.43;;
2934;SDS011;2462;51.456;7.248;2023-03-14T02:49:20;2.63;;;1.53;;
2934;SDS011;2462;51.456;7.248;2023-03-14T02:51:47;3.20;;;1.50;;
2934;SDS011;2462;51.456;7.248;2023-03-14T02:54:14;1.93;;;1.23;;
2934;SDS011;2462;51.456;7.248;2023-03-14T02:56:40;2.90;;;1.10;;
2934;SDS011;2462;51.456;7.248;2023-03-14T02:59:06;1.60;;;1.40;;
2934;SDS011;2462;51.456;7.248;2023-03-14T03:01:33;2.93;;;1.50;;
2934;SDS011;2462;51.456;7.248;2023-03-14T03:03:59;2.60;;;1.70;;
2934;SDS011;2462;51.456;7.248;2023-03-14T03:06:25;2.37;;;1.50;;
2934;SDS011;2462;51.456;7.248;2023-03-14T03:08:51;2.33;;;1.70;;
2934;SDS011;2462;51.456;7.248;2023-03-14T03:11:18;1.70;;;1.60;;
2934;SDS011;2462;51.456;7.248;2023-03-14T03:13:44;1.80;;;1.60;;
2934;SDS011;2462;51.456;7.248;2023-03-14T03:16:10;1.87;;;1.30;;
2934;SDS011;2462;51.456;7.248;2023-03-14T03:18:38;2.90;;;1.97;;
2934;SDS011;2462;51.456;7.248;2023-03-14T03:21:04;1.70;;;1.33;;
2934;SDS011;2462;51.456;7.248;2023-03-14T03:23:30;3.80;;;1.30;;
2934;SDS011;2462;51.456;7.248;2023-03-14T03:25:57;2.90;;;1.43;;
2934;SDS011;2462;51.456;7.248;2023-03-14T03:28:23;2.97;;;1.20;;
2934;SDS011;2462;51.456;7.248;2023-03-14T03:30:49;2.70;;;1.40;;
2934;SDS011;2462;51.456;7.248;2023-03-14T03:33:15;2.17;;;1.33;;
2934;SDS011;2462;51.456;7.248;2023-03-14T03:35:41;3.40;;;1.37;;
2934;SDS011;2462;51.456;7.248;2023-03-14T03:38:08;1.90;;;1.20;;
2934;SDS011;2462;51.456;7.248;2023-03-14T03:40:34;1.50;;;1.20;;
2934;SDS011;2462;51.456;7.248;2023-03-14T03:43:00;1.40;;;1.23;;
2934;SDS011;2462;51.456;7.248;2023-03-14T03:45:26;2.00;;;1.23;;
2934;SDS011;2462;51.456;7.248;2023-03-14T03:47:52;1.83;;;1.37;;
2934;SDS011;2462;51.456;7.248;2023-03-14T03:50:18;3.00;;;1.53;;
2934;SDS011;2462;51.456;7.248;2023-03-14T03:52:44;2.13;;;1.27;;
2934;SDS011;2462;51.456;7.248;2023-03-14T03:55:10;3.20;;;1.40;;
2934;SDS011;2462;51.456;7.248;2023-03-14T03:57:36;3.77;;;1.30;;
2934;SDS011;2462;51.456;7.248;2023-03-14T04:00:03;1.93;;;1.27;;
2934;SDS011;2462;51.456;7.248;2023-03-14T04:02:30;1.77;;;1.40;;
2934;SDS011;2462;51.456;7.248;2023-03-14T04:04:56;3.67;;;1.23;;
2934;SDS011;2462;51.456;7.248;2023-03-14T04:07:22;2.80;;;1.50;;
2934;SDS011;2462;51.456;7.248;2023-03-14T04:09:48;2.67;;;1.50;;
2934;SDS011;2462;51.456;7.248;2023-03-14T04:12:14;1.70;;;1.10;;
2934;SDS011;2462;51.456;7.248;2023-03-14T04:14:40;3.53;;;1.20;;
2934;SDS011;2462;51.456;7.248;2023-03-14T04:17:06;1.47;;;1.10;;
2934;SDS011;2462;51.456;7.248;2023-03-14T04:19:33;2.23;;;1.73;;
2934;SDS011;2462;51.456;7.248;2023-03-14T04:21:58;2.17;;;1.30;;
2934;SDS011;2462;51.456;7.248;2023-03-14T04:24:24;2.77;;;1.40;;
2934;SDS011;2462;51.456;7.248;2023-03-14T04:26:50;3.00;;;1.50;;
2934;SDS011;2462;51.456;7.248;2023-03-14T04:29:17;1.93;;;1.13;;
2934;SDS011;2462;51.456;7.248;2023-03-14T04:31:43;2.43;;;1.30;;
2934;SDS011;2462;51.456;7.248;2023-03-14T04:34:09;1.70;;;1.17;;
2934;SDS011;2462;51.456;7.248;2023-03-14T04:36:35;1.70;;;1.23;;
2934;SDS011;2462;51.456;7.248;2023-03-14T04:39:01;3.97;;;1.50;;
2934;SDS011;2462;51.456;7.248;2023-03-14T04:41:28;2.77;;;1.40;;
2934;SDS011;2462;51.456;7.248;2023-03-14T04:43:55;2.50;;;1.77;;
2934;SDS011;2462;51.456;7.248;2023-03-14T04:46:21;2.87;;;1.43;;
2934;SDS011;2462;51.456;7.248;2023-03-14T04:48:47;1.73;;;1.10;;
2934;SDS011;2462;51.456;7.248;2023-03-14T04:51:13;2.17;;;1.50;;
2934;SDS011;2462;51.456;7.248;2023-03-14T04:53:39;1.40;;;1.10;;
2934;SDS011;2462;51.456;7.248;2023-03-14T04:56:06;2.40;;;1.33;;
2934;SDS011;2462;51.456;7.248;2023-03-14T04:58:32;2.07;;;1.00;;
2934;SDS011;2462;51.456;7.248;2023-03-14T05:01:02;1.70;;;1.37;;
2934;SDS011;2462;51.456;7.248;2023-03-14T05:03:28;4.80;;;1.50;;
2934;SDS011;2462;51.456;7.248;2023-03-14T05:05:54;1.90;;;1.20;;
2934;SDS011;2462;51.456;7.248;2023-03-14T05:08:22;2.10;;;1.50;;
2934;SDS011;2462;51.456;7.248;2023-03-14T05:10:52;3.10;;;1.40;;
2934;SDS011;2462;51.456;7.248;2023-03-14T05:13:18;1.73;;;1.07;;
2934;SDS011;2462;51.456;7.248;2023-03-14T05:15:44;1.63;;;1.20;;
2934;SDS011;2462;51.456;7.248;2023-03-14T05:18:10;2.83;;;1.33;;
2934;SDS011;2462;51.456;7.248;2023-03-14T05:20:36;1.93;;;1.17;;
2934;SDS011;2462;51.456;7.248;2023-03-14T05:23:02;2.13;;;1.00;;
2934;SDS011;2462;51.456;7.248;2023-03-14T05:25:28;1.33;;;1.03;;
2934;SDS011;2462;51.456;7.248;2023-03-14T05:27:54;2.20;;;1.30;;
2934;SDS011;2462;51.456;7.248;2023-03-14T05:30:20;2.03;;;1.00;;
2934;SDS011;2462;51.456;7.248;2023-03-14T05:32:47;1.30;;;0.90;;
2934;SDS011;2462;51.456;7.248;2023-03-14T05:35:13;2.20;;;0.90;;
2934;SDS011;2462;51.456;7.248;2023-03-14T05:37:39;1.93;;;1.30;;
2934;SDS011;2462;51.456;7.248;2023-03-14T05:40:05;1.20;;;1.00;;
2934;SDS011;2462;51.456;7.248;2023-03-14T05:42:32;2.07;;;1.00;;
2934;SDS011;2462;51.456;7.248;2023-03-14T05:44:58;3.00;;;1.17;;
2934;SDS011;2462;51.456;7.248;2023-03-14T05:47:24;1.87;;;1.10;;
2934;SDS011;2462;51.456;7.248;2023-03-14T05:49:50;1.53;;;1.20;;
2934;SDS011;2462;51.456;7.248;2023-03-14T05:52:16;2.13;;;1.03;;
2934;SDS011;2462;51.456;7.248;2023-03-14T05:54:43;4.13;;;1.00;;
2934;SDS011;2462;51.456;7.248;2023-03-14T05:57:09;1.43;;;1.10;;
2934;SDS011;2462;51.456;7.248;2023-03-14T05:59:35;3.90;;;1.13;;
2934;SDS011;2462;51.456;7.248;2023-03-14T06:02:01;2.03;;;1.17;;
2934;SDS011;2462;51.456;7.248;2023-03-14T06:04:27;2.17;;;1.33;;
2934;SDS011;2462;51.456;7.248;2023-03-14T06:06:53;1.50;;;1.10;;
2934;SDS011;2462;51.456;7.248;2023-03-14T06:09:19;1.63;;;1.07;;
2934;SDS011;2462;51.456;7.248;2023-03-14T06:11:47;1.53;;;1.20;;
2934;SDS011;2462;51.456;7.248;2023-03-14T06:14:13;1.67;;;0.90;;
2934;SDS011;2462;51.456;7.248;2023-03-14T06:16:39;3.27;;;1.10;;
2934;SDS011;2462;51.456;7.248;2023-03-14T06:19:05;1.20;;;0.90;;
2934;SDS011;2462;51.456;7.248;2023-03-14T06:21:31;1.73;;;1.10;;
2934;SDS011;2462;51.456;7.248;2023-03-14T06:23:57;1.20;;;0.90;;
2934;SDS011;2462;51.456;7.248;2023-03-14T06:26:23;2.47;;;1.10;;
2934;SDS011;2462;51.456;7.248;2023-03-14T06:28:49;1.30;;;0.97;;
2934;SDS011;2462;51.456;7.248;2023-03-14T06:31:16;0.97;;;0.70;;
2934;SDS011;2462;51.456;7.248;2023-03-14T06:33:42;2.60;;;0.90;;
2934;SDS011;2462;51.456;7.248;2023-03-14T06:36:08;1.50;;;1.00;;
2934;SDS011;2462;51.456;7.248;2023-03-14T06:38:34;1.40;;;1.30;;
2934;SDS011;2462;51.456;7.248;2023-03-14T06:41:07;1.10;;;0.90;;
2934;SDS011;2462;51.456;7.248;2023-03-14T06:43:33;1.60;;;1.03;;
2934;SDS011;2462;51.456;7.248;2023-03-14T06:45:59;1.80;;;1.10;;
2934;SDS011;2462;51.456;7.248;2023-03-14T06:48:25;1.83;;;1.00;;
2934;SDS011;2462;51.456;7.248;2023-03-14T06:50:51;1.90;;;0.97;;
2934;SDS011;2462;51.456;7.248;2023-03-14T06:53:17;2.33;;;1.10;;
2934;SDS011;2462;51.456;7.248;2023-03-14T06:55:43;1.60;;;0.80;;
2934;SDS011;2462;51.456;7.248;2023-03-14T06:58:10;1.60;;;0.93;;
2934;SDS011;2462;51.456;7.248;2023-03-14T07:00:36;3.40;;;0.90;;
2934;SDS011;2462;51.456;7.248;2023-03-14T07:03:02;1.00;;;0.70;;
2934;SDS011;2462;51.456;7.248;2023-03-14T07:05:28;2.03;;;0.90;;
2934;SDS011;2462;51.456;7.248;2023-03-14T07:07:54;2.23;;;0.90;;
2934;SDS011;2462;51.456;7.248;2023-03-14T07:10:20;1.37;;;0.80;;
2934;SDS011;2462;51.456;7.248;2023-03-14T07:12:46;2.67;;;1.10;;
2934;SDS011;2462;51.456;7.248;2023-03-14T07:15:12;2.80;;;0.80;;
2934;SDS011;2462;51.456;7.248;2023-03-14T07:17:39;1.83;;;0.80;;
2934;SDS011;2462;51.456;7.248;2023-03-14T07:20:05;1.47;;;0.90;;
2934;SDS011;2462;51.456;7.248;2023-03-14T07:22:32;1.13;;;0.83;;
2934;SDS011;2462;51.456;7.248;2023-03-14T07:24:58;1.27;;;0.80;;
2934;SDS011;2462;51.456;7.248;2023-03-14T07:27:24;1.20;;;0.80;;
2934;SDS011;2462;51.456;7.248;2023-03-14T07:29:50;1.20;;;0.70;;
2934;SDS011;2462;51.456;7.248;2023-03-14T07:32:16;2.03;;;1.00;;
2934;SDS011;2462;51.456;7.248;2023-03-14T07:34:42;2.33;;;0.80;;
2934;SDS011;2462;51.456;7.248;2023-03-14T07:37:08;2.03;;;1.13;;
2934;SDS011;2462;51.456;7.248;2023-03-14T07:39:34;2.10;;;0.90;;
2934;SDS011;2462;51.456;7.248;2023-03-14T07:42:00;1.10;;;0.80;;
2934;SDS011;2462;51.456;7.248;2023-03-14T07:44:26;1.30;;;0.80;;
2934;SDS011;2462;51.456;7.248;2023-03-14T07:46:52;1.47;;;0.80;;
2934;SDS011;2462;51.456;7.248;2023-03-14T07:49:19;1.77;;;0.90;;
2934;SDS011;2462;51.456;7.248;2023-03-14T07:51:47;1.93;;;1.07;;
2934;SDS011;2462;51.456;7.248;2023-03-14T07:54:13;1.50;;;0.90;;
2934;SDS011;2462;51.456;7.248;2023-03-14T07:56:39;1.10;;;0.80;;
2934;SDS011;2462;51.456;7.248;2023-03-14T07:59:05;1.30;;;0.90;;
2934;SDS011;2462;51.456;7.248;2023-03-14T08:01:32;1.10;;;1.00;;
2934;SDS011;2462;51.456;7.248;2023-03-14T08:03:58;1.70;;;1.10;;
2934;SDS011;2462;51.456;7.248;2023-03-14T08:06:24;1.40;;;0.87;;
2934;SDS011;2462;51.456;7.248;2023-03-14T08:08:50;1.53;;;0.87;;
2934;SDS011;2462;51.456;7.248;2023-03-14T08:11:16;2.40;;;0.97;;
2934;SDS011;2462;51.456;7.248;2023-03-14T08:13:42;1.10;;;0.77;;
2934;SDS011;2462;51.456;7.248;2023-03-14T08:16:14;2.97;;;1.10;;
2934;SDS011;2462;51.456;7.248;2023-03-14T08:18:40;1.30;;;0.80;;
2934;SDS011;2462;51.456;7.248;2023-03-14T08:21:06;1.20;;;0.80;;
2934;SDS011;2462;51.456;7.248;2023-03-14T08:23:32;1.70;;;0.90;;
2934;SDS011;2462;51.456;7.248;2023-03-14T08:25:58;1.20;;;0.90;;
2934;SDS011;2462;51.456;7.248;2023-03-14T08:28:24;1.40;;;0.83;;
2934;SDS011;2462;51.456;7.248;2023-03-14T08:30:55;1.10;;;0.90;;
2934;SDS011;2462;51.456;7.248;2023-03-14T08:33:21;1.67;;;1.10;;
2934;SDS011;2462;51.456;7.248;2023-03-14T08:35:47;2.00;;;0.90;;
2934;SDS011;2462;51.456;7.248;2023-03-14T08:38:13;1.47;;;0.97;;
2934;SDS011;2462;51.456;7.248;2023-03-14T08:40:40;1.10;;;0.77;;
2934;SDS011;2462;51.456;7.248;2023-03-14T08:43:06;1.30;;;0.93;;
2934;SDS011;2462;51.456;7.248;2023-03-14T08:45:32;2.43;;;0.87;;
2934;SDS011;2462;51.456;7.248;2023-03-14T08:47:58;1.20;;;0.70;;
2934;SDS011;2462;51.456;7.248;2023-03-14T08:50:24;1.10;;;0.80;;
2934;SDS011;2462;51.456;7.248;2023-03-14T08:52:50;2.20;;;0.80;;
2934;SDS011;2462;51.456;7.248;2023-03-14T08:55:16;0.93;;;0.70;;
2934;SDS011;2462;51.456;7.248;2023-03-14T08:57:42;1.00;;;0.70;;
2934;SDS011;2462;51.456;7.248;2023-03-14T09:00:08;1.10;;;0.93;;
2934;SDS011;2462;51.456;7.248;2023-03-14T09:02:37;1.10;;;0.80;;
2934;SDS011;2462;51.456;7.248;2023-03-14T09:05:04;1.60;;;0.80;;
2934;SDS011;2462;51.456;7.248;2023-03-14T09:07:30;1.77;;;0.80;;
2934;SDS011;2462;51.456;7.248;2023-03-14T09:09:56;1.63;;;0.70;;
2934;SDS011;2462;51.456;7.248;2023-03-14T09:12:22;1.30;;;0.80;;
2934;SDS011;2462;51.456;7.248;2023-03-14T09:14:48;1.30;;;0.90;;
2934;SDS011;2462;51.456;7.248;2023-03-14T09:17:14;2.20;;;0.70;;
2934;SDS011;2462;51.456;7.248;2023-03-14T09:19:40;1.00;;;0.77;;
2934;SDS011;2462;51.456;7.248;2023-03-14T09:22:06;1.60;;;1.00;;
2934;SDS011;2462;51.456;7.248;2023-03-14T09:24:32;1.17;;;0.90;;
2934;SDS011;2462;51.456;7.248;2023-03-14T09:26:58;2.60;;;0.80;;
2934;SDS011;2462;51.456;7.248;2023-03-14T09:29:24;1.20;;;1.00;;
2934;SDS011;2462;51.456;7.248;2023-03-14T09:31:50;1.60;;;1.00;;
2934;SDS011;2462;51.456;7.248;2023-03-14T09:34:16;1.20;;;0.77;;
2934;SDS011;2462;51.456;7.248;2023-03-14T09:36:42;3.00;;;0.80;;
2934;SDS011;2462;51.456;7.248;2023-03-14T09:39:09;1.30;;;0.80;;
2934;SDS011;2462;51.456;7.248;2023-03-14T09:41:36;2.83;;;1.20;;
2934;SDS011;2462;51.456;7.248;2023-03-14T09:46:42;1.00;;;0.70;;
2934;SDS011;2462;51.456;7.248;2023-03-14T09:49:10;1.87;;;1.03;;
2934;SDS011;2462;51.456;7.248;2023-03-14T09:51:37;1.47;;;1.10;;
2934;SDS011;2462;51.456;7.248;2023-03-14T09:54:03;1.10;;;0.90;;
2934;SDS011;2462;51.456;7.248;2023-03-14T09:56:32;0.90;;;0.70;;
2934;SDS011;2462;51.456;7.248;2023-03-14T09:58:58;1.73;;;0.80;;
2934;SDS011;2462;51.456;7.248;2023-03-14T10:01:26;1.10;;;0.80;;
2934;SDS011;2462;51.456;7.248;2023-03-14T10:03:57;1.30;;;1.20;;
2934;SDS011;2462;51.456;7.248;2023-03-14T10:06:26;1.10;;;0.73;;
2934;SDS011;2462;51.456;7.248;2023-03-14T10:08:53;1.57;;;1.00;;
2934;SDS011;2462;51.456;7.248;2023-03-14T10:11:20;1.20;;;0.90;;
2934;SDS011;2462;51.456;7.248;2023-03-14T10:13:48;1.40;;;0.63;;
2934;SDS011;2462;51.456;7.248;2023-03-14T10:16:14;1.07;;;0.70;;
2934;SDS011;2462;51.456;7.248;2023-03-14T10:18:43;1.07;;;0.70;;
2934;SDS011;2462;51.456;7.248;2023-03-14T10:23:51;2.40;;;0.80;;
2934;SDS011;2462;51.456;7.248;2023-03-14T10:26:18;1.80;;;0.90;;
2934;SDS011;2462;51.456;7.248;2023-03-14T10:28:53;1.40;;;0.80;;
2934;SDS011;2462;51.456;7.248;2023-03-14T10:31:24;1.10;;;0.70;;
2934;SDS011;2462;51.456;7.248;2023-03-14T10:33:58;1.20;;;0.87;;
2934;SDS011;2462;51.456;7.248;2023-03-14T10:36:26;1.47;;;1.00;;
2934;SDS011;2462;51.456;7.248;2023-03-14T10:41:38;4.27;;;1.00;;
2934;SDS011;2462;51.456;7.248;2023-03-14T10:44:12;1.03;;;0.83;;
2934;SDS011;2462;51.456;7.248;2023-03-14T10:46:38;5.77;;;1.13;;
2934;SDS011;2462;51.456;7.248;2023-03-14T10:49:05;1.30;;;0.83;;
2934;SDS011;2462;51.456;7.248;2023-03-14T10:51:31;1.10;;;0.87;;
2934;SDS011;2462;51.456;7.248;2023-03-14T10:54:11;1.30;;;1.03;;
2934;SDS011;2462;51.456;7.248;2023-03-14T10:56:38;1.20;;;0.93;;
2934;SDS011;2462;51.456;7.248;2023-03-14T10:59:07;7.83;;;1.77;;
2934;SDS011;2462;51.456;7.248;2023-03-14T11:09:01;13.63;;;1.83;;
2934;SDS011;2462;51.456;7.248;2023-03-14T11:11:30;1.33;;;1.23;;
2934;SDS011;2462;51.456;7.248;2023-03-14T11:16:43;1.30;;;1.00;;
2934;SDS011;2462;51.456;7.248;2023-03-14T11:22:01;2.37;;;1.13;;
2934;SDS011;2462;51.456;7.248;2023-03-14T11:30:28;1.40;;;1.00;;
2934;SDS011;2462;51.456;7.248;2023-03-14T11:34:53;1.50;;;1.00;;
2934;SDS011;2462;51.456;7.248;2023-03-14T11:37:27;1.07;;;0.90;;
2934;SDS011;2462;51.456;7.248;2023-03-14T11:42:22;2.27;;;1.00;;
2934;SDS011;2462;51.456;7.248;2023-03-14T11:44:50;1.40;;;1.07;;
2934;SDS011;2462;51.456;7.248;2023-03-14T11:52:31;1.50;;;1.00;;
2934;SDS011;2462;51.456;7.248;2023-03-14T11:55:05;1.73;;;1.30;;
2934;SDS011;2462;51.456;7.248;2023-03-14T11:57:33;1.50;;;1.10;;
2934;SDS011;2462;51.456;7.248;2023-03-14T12:00:01;1.27;;;0.87;;
2934;SDS011;2462;51.456;7.248;2023-03-14T12:02:43;1.30;;;1.00;;
2934;SDS011;2462;51.456;7.248;2023-03-14T12:08:15;1.27;;;0.93;;
2934;SDS011;2462;51.456;7.248;2023-03-14T12:10:54;1.40;;;0.90;;
2934;SDS011;2462;51.456;7.248;2023-03-14T12:13:22;1.10;;;0.83;;
2934;SDS011;2462;51.456;7.248;2023-03-14T12:15:57;1.13;;;0.90;;
2934;SDS011;2462;51.456;7.248;2023-03-14T12:18:34;1.50;;;0.93;;
2934;SDS011;2462;51.456;7.248;2023-03-14T12:21:05;2.33;;;1.00;;
2934;SDS011;2462;51.456;7.248;2023-03-14T12:24:14;1.20;;;1.00;;
2934;SDS011;2462;51.456;7.248;2023-03-14T12:26:22;1.30;;;1.20;;
2934;SDS011;2462;51.456;7.248;2023-03-14T12:28:52;3.83;;;1.13;;
2934;SDS011;2462;51.456;7.248;2023-03-14T12:31:42;2.00;;;1.07;;
2934;SDS011;2462;51.456;7.248;2023-03-14T12:39:19;2.17;;;1.00;;
2934;SDS011;2462;51.456;7.248;2023-03-14T12:42:01;1.10;;;0.90;;
2934;SDS011;2462;51.456;7.248;2023-03-14T12:46:54;1.50;;;1.10;;
2934;SDS011;2462;51.456;7.248;2023-03-14T12:49:20;1.30;;;0.90;;
2934;SDS011;2462;51.456;7.248;2023-03-14T12:51:47;1.30;;;1.00;;
2934;SDS011;2462;51.456;7.248;2023-03-14T12:57:09;1.20;;;0.93;;
2934;SDS011;2462;51.456;7.248;2023-03-14T12:59:38;1.23;;;0.80;;
2934;SDS011;2462;51.456;7.248;2023-03-14T13:04:35;2.07;;;1.20;;
2934;SDS011;2462;51.456;7.248;2023-03-14T13:07:03;2.13;;;1.00;;
2934;SDS011;2462;51.456;7.248;2023-03-14T13:12:00;1.90;;;1.37;;
2934;SDS011;2462;51.456;7.248;2023-03-14T13:14:28;2.83;;;1.33;;
2934;SDS011;2462;51.456;7.248;2023-03-14T13:16:54;3.03;;;1.60;;
2934;SDS011;2462;51.456;7.248;2023-03-14T13:19:22;1.87;;;1.70;;
2934;SDS011;2462;51.456;7.248;2023-03-14T13:21:49;2.23;;;1.50;;
2934;SDS011;2462;51.456;7.248;2023-03-14T13:24:23;2.00;;;1.80;;
2934;SDS011;2462;51.456;7.248;2023-03-14T13:26:49;2.93;;;1.80;;
2934;SDS011;2462;51.456;7.248;2023-03-14T13:29:28;1.90;;;1.10;;
2934;SDS011;2462;51.456;7.248;2023-03-14T13:31:56;2.97;;;1.40;;
2934;SDS011;2462;51.456;7.248;2023-03-14T13:34:24;2.43;;;1.37;;
2934;SDS011;2462;51.456;7.248;2023-03-14T13:36:51;1.50;;;1.37;;
2934;SDS011;2462;51.456;7.248;2023-03-14T13:39:18;2.83;;;1.70;;
2934;SDS011;2462;51.456;7.248;2023-03-14T13:41:46;1.80;;;1.20;;
2934;SDS011;2462;51.456;7.248;2023-03-14T13:44:15;1.70;;;1.47;;
2934;SDS011;2462;51.456;7.248;2023-03-14T13:46:42;7.22;;;1.40;;
2934;SDS011;2462;51.456;7.248;2023-03-14T13:49:21;2.67;;;1.40;;
2934;SDS011;2462;51.456;7.248;2023-03-14T13:51:48;2.30;;;1.70;;
2934;SDS011;2462;51.456;7.248;2023-03-14T13:54:15;1.97;;;1.30;;
2934;SDS011;2462;51.456;7.248;2023-03-14T13:56:41;4.40;;;1.43;;
2934;SDS011;2462;51.456;7.248;2023-03-14T13:59:23;1.80;;;1.30;;
2934;SDS011;2462;51.456;7.248;2023-03-14T14:01:50;1.83;;;1.43;;
2934;SDS011;2462;51.456;7.248;2023-03-14T14:04:17;4.53;;;2.43;;
2934;SDS011;2462;51.456;7.248;2023-03-14T14:06:50;12.50;;;2.57;;
2934;SDS011;2462;51.456;7.248;2023-03-14T14:09:27;5.23;;;1.73;;
2934;SDS011;2462;51.456;7.248;2023-03-14T14:12:02;4.70;;;2.13;;
2934;SDS011;2462;51.456;7.248;2023-03-14T14:14:37;3.43;;;1.70;;
2934;SDS011;2462;51.456;7.248;2023-03-14T14:17:05;5.73;;;1.93;;
2934;SDS011;2462;51.456;7.248;2023-03-14T14:19:33;2.90;;;2.00;;
2934;SDS011;2462;51.456;7.248;2023-03-14T14:22:00;4.33;;;2.23;;
2934;SDS011;2462;51.456;7.248;2023-03-14T14:24:28;3.10;;;1.80;;
2934;SDS011;2462;51.456;7.248;2023-03-14T14:26:59;3.33;;;2.03;;
2934;SDS011;2462;51.456;7.248;2023-03-14T14:29:29;7.17;;;2.10;;
2934;SDS011;2462;51.456;7.248;2023-03-14T14:32:14;3.70;;;1.80;;
2934;SDS011;2462;51.456;7.248;2023-03-14T14:34:41;5.60;;;2.60;;
2934;SDS011;2462;51.456;7.248;2023-03-14T14:39:42;4.90;;;1.80;;
2934;SDS011;2462;51.456;7.248;2023-03-14T14:42:15;2.50;;;1.87;;
2934;SDS011;2462;51.456;7.248;2023-03-14T14:44:42;4.03;;;1.77;;
2934;SDS011;2462;51.456;7.248;2023-03-14T14:47:12;5.47;;;2.40;;
2934;SDS011;2462;51.456;7.248;2023-03-14T14:49:38;5.85;;;1.80;;
2934;SDS011;2462;51.456;7.248;2023-03-14T14:52:15;5.67;;;2.10;;
2934;SDS011;2462;51.456;7.248;2023-03-14T14:54:51;10.87;;;4.80;;
2934;SDS011;2462;51.456;7.248;2023-03-14T14:57:26;22.33;;;3.73;;
2934;SDS011;2462;51.456;7.248;2023-03-14T14:59:55;7.77;;;2.80;;
2934;SDS011;2462;51.456;7.248;2023-03-14T15:04:56;8.17;;;2.77;;
2934;SDS011;2462;51.456;7.248;2023-03-14T15:07:22;5.80;;;3.30;;
2934;SDS011;2462;51.456;7.248;2023-03-14T15:09:48;7.93;;;2.60;;
2934;SDS011;2462;51.456;7.248;2023-03-14T15:12:14;5.97;;;2.37;;
2934;SDS011;2462;51.456;7.248;2023-03-14T15:14:40;4.80;;;3.10;;
2934;SDS011;2462;51.456;7.248;2023-03-14T15:17:09;2.40;;;2.07;;
2934;SDS011;2462;51.456;7.248;2023-03-14T15:19:35;4.60;;;3.20;;
2934;SDS011;2462;51.456;7.248;2023-03-14T15:22:02;4.03;;;2.43;;
2934;SDS011;2462;51.456;7.248;2023-03-14T15:24:28;6.10;;;2.90;;
2934;SDS011;2462;51.456;7.248;2023-03-14T15:26:54;7.07;;;2.80;;
2934;SDS011;2462;51.456;7.248;2023-03-14T15:29:20;6.60;;;2.67;;
2934;SDS011;2462;51.456;7.248;2023-03-14T15:31:46;4.63;;;2.47;;
2934;SDS011;2462;51.456;7.248;2023-03-14T15:34:12;3.60;;;2.50;;
2934;SDS011;2462;51.456;7.248;2023-03-14T15:36:38;7.17;;;3.13;;
2934;SDS011;2462;51.456;7.248;2023-03-14T15:39:05;6.70;;;3.53;;
2934;SDS011;2462;51.456;7.248;2023-03-14T15:41:32;6.80;;;2.83;;
2934;SDS011;2462;51.456;7.248;2023-03-14T15:43:58;11.20;;;2.80;;
2934;SDS011;2462;51.456;7.248;2023-03-14T15:46:24;12.57;;;3.20;;
2934;SDS011;2462;51.456;7.248;2023-03-14T15:48:50;18.07;;;3.00;;
2934;SDS011;2462;51.456;7.248;2023-03-14T15:51:17;4.77;;;2.70;;
2934;SDS011;2462;51.456;7.248;2023-03-14T15:53:43;11.30;;;2.80;;
2934;SDS011;2462;51.456;7.248;2023-03-14T15:56:11;8.27;;;2.33;;
2934;SDS011;2462;51.456;7.248;2023-03-14T15:58:37;17.73;;;3.30;;
2934;SDS011;2462;51.456;7.248;2023-03-14T16:01:05;15.67;;;2.97;;
2934;SDS011;2462;51.456;7.248;2023-03-14T16:03:33;8.83;;;2.47;;
2934;SDS011;2462;51.456;7.248;2023-03-14T16:05:59;5.63;;;2.10;;
2934;SDS011;2462;51.456;7.248;2023-03-14T16:08:26;3.53;;;2.80;;
2934;SDS011;2462;51.456;7.248;2023-03-14T16:10:54;6.07;;;2.87;;
2934;SDS011;2462;51.456;7.248;2023-03-14T16:13:21;5.53;;;2.60;;
2934;SDS011;2462;51.456;7.248;2023-03-14T16:15:53;6.53;;;2.50;;
2934;SDS011;2462;51.456;7.248;2023-03-14T16:18:20;6.50;;;2.70;;
2934;SDS011;2462;51.456;7.248;2023-03-14T16:20:56;6.27;;;2.30;;